Terminal Aerodrome Forecast
Issued by NWS

Home | Current Version | Previous Version | Text Only | Print | Product List | Glossary On
Versions: 1 2 3 4 5 6 7 8 9 10 11 12 13 14 15
000
FTUS43 KFGF 061100
TAFDVL
TAF
KDVL 061120Z 0612/0712 15013KT P6SM FEW035 OVC050
     FM061700 14015G24KT P6SM -RA BKN025
     FM070500 16008KT P6SM VCSH OVC025
      AMD LTD TO CLD VIS AND WIND=

USA.gov is the U.S. government's official web portal to all federal, state and local government web resources and services.